MMMD/MID METAR and TAF weather

Enter ICAO airport designator
Station Type Date Time Source
MMMD METAR 2019/06/26 19:41 UTC NOAA

MMMD 261941Z 05012KT 7SM BKN025TCU 36/22 A2994 RMK 8/200


Station Type Date Time Source
MMMD Decoded METAR 2019/06/26 19:41 UTC NOAA

Merida / lic Manuel Crecencio, Mexico (MMMD) 20-56N 089-39W 11M
Jun 26, 2019 - 03:41 PM EDT / 2019.06.26 1941 UTC
Wind: from the NE (050 degrees) at 14 MPH (12 KT):0
Visibility: 7 mile(s):0
Sky conditions: mostly cloudy
Weather: Towering cumulus clouds observed
Temperature: 96 F (36 C)
Heat index: 103.5 F (39.7 C):1
Dew Point: 71 F (22 C)
Relative Humidity: 44%
Pressure (altimeter): 29.94 in. Hg (1013 hPa)
ob: MMMD 261941Z 05012KT 7SM BKN025TCU 36/22 A2994 RMK 8/200
cycle: 19

Station Type Date Time Source
MMMD TAF 2019/06/26 18:37 UTC NOAA

TAF MMMD 261630Z 2618/2724 10010KT 6SM HZ SCT020 TX38/2621Z TN26/2712Z
BECMG 2620/2621 03012G22KT BKN025 BKN300
FM270200 09012KT P6SM SCT080 SCT300
FM270600 09006KT P6SM SCT300
FM271200 09010KT 6SM HZ SCT015
BECMG 2715/2716 BKN020
FM272000 03012G22KT P6SM BKN025CB BKN080 PROB40 2721/2724 3SM TSRA

Example: see airport list